Aviation Digital Data Service (ADDS)

Output produced by METARs form (2025 UTC 20 August 2014)
found at http://aviationweather.gov/adds/metars/
 
KRWI 201732Z 2018/2118 VRB05KT P6SM SCT030 BKN150 
     FM210900 00000KT 4SM BR SCT004 BKN250 
     FM211300 VRB05KT P6SM SCT060